createdAt,value
2018-02-23T00:00:46.678Z,0.37
2018-02-23T00:01:47.110Z,0.43
2018-02-23T00:02:47.517Z,0.32
2018-02-23T00:03:47.933Z,0.46
2018-02-23T00:04:48.353Z,0.44
2018-02-23T00:05:48.770Z,0.40
2018-02-23T00:06:49.184Z,0.39
2018-02-23T00:07:49.599Z,0.40
2018-02-23T00:08:50.024Z,0.43
2018-02-23T00:09:50.445Z,0.32
2018-02-23T00:10:50.856Z,0.32
2018-02-23T00:11:51.269Z,0.37
2018-02-23T00:12:51.712Z,0.39
2018-02-23T00:13:52.114Z,0.41
2018-02-23T00:14:52.524Z,0.40
2018-02-23T00:15:52.946Z,0.41
2018-02-23T00:16:53.360Z,0.44
2018-02-23T00:17:53.787Z,0.32
2018-02-23T00:18:54.201Z,0.18
2018-02-23T00:19:54.618Z,0.22
2018-02-23T00:20:55.036Z,0.26
2018-02-23T00:21:55.456Z,0.04
2018-02-23T00:22:55.917Z,0.16
2018-02-23T00:23:56.323Z,0.05
2018-02-23T00:24:56.709Z,0.08
2018-02-23T00:25:57.126Z,0.11
2018-02-23T00:26:57.542Z,0.08
2018-02-23T00:27:57.991Z,0.16
2018-02-23T00:28:58.382Z,0.16
2018-02-23T00:29:58.799Z,0.11
2018-02-23T00:30:59.214Z,0.11
2018-02-23T00:31:59.632Z,0.19
2018-02-23T00:33:00.050Z,0.07
2018-02-23T00:34:00.470Z,0.04
2018-02-23T00:35:00.889Z,0.11
2018-02-23T00:36:01.322Z,0.08
2018-02-23T00:37:01.736Z,0.05
2018-02-23T00:38:02.164Z,0.07
2018-02-23T00:39:02.560Z,0.10
2018-02-23T00:40:02.980Z,0.10
2018-02-23T00:41:03.399Z,0.05
2018-02-23T00:42:03.853Z,0.07
2018-02-23T00:43:04.237Z,-0.03
2018-02-23T00:44:04.655Z,0.00
2018-02-23T00:45:05.128Z,-0.02
2018-02-23T00:46:05.489Z,-0.14
2018-02-23T00:47:05.906Z,-0.11
2018-02-23T00:48:06.324Z,-0.11
2018-02-23T00:49:06.741Z,-0.02
2018-02-23T00:50:07.155Z,0.01
2018-02-23T00:51:07.577Z,-0.08
2018-02-23T00:52:07.997Z,-0.02
2018-02-23T00:53:08.412Z,-0.15
2018-02-23T00:54:08.900Z,-0.10
2018-02-23T00:55:09.260Z,-0.15
2018-02-23T00:56:09.673Z,-0.17
2018-02-23T00:57:10.094Z,-0.14
2018-02-23T00:58:10.527Z,-0.11
2018-02-23T00:59:10.923Z,-0.10
2018-02-23T01:00:11.394Z,-0.11
2018-02-23T01:01:11.758Z,-0.23
2018-02-23T01:02:12.177Z,-0.25
2018-02-23T01:03:12.590Z,-0.23
2018-02-23T01:04:13.012Z,-0.21
2018-02-23T01:05:13.430Z,-0.23
2018-02-23T01:06:13.847Z,-0.31
2018-02-23T01:07:14.265Z,-0.26
2018-02-23T01:08:14.684Z,-0.23
2018-02-23T01:09:15.102Z,-0.26
2018-02-23T01:10:15.520Z,-0.25
2018-02-23T01:11:15.941Z,-0.23
2018-02-23T01:12:16.355Z,-0.31
2018-02-23T01:13:16.778Z,-0.29
2018-02-23T01:14:17.188Z,-0.18
2018-02-23T01:15:17.610Z,-0.21
2018-02-23T01:16:18.027Z,-0.26
2018-02-23T01:17:18.444Z,-0.31
2018-02-23T01:18:18.863Z,-0.32
2018-02-23T01:19:19.282Z,-0.25
2018-02-23T01:20:19.700Z,-0.39
2018-02-23T01:21:20.117Z,-0.32
2018-02-23T01:22:20.535Z,-0.29
2018-02-23T01:23:20.949Z,-0.46
2018-02-23T01:24:21.377Z,-0.34
2018-02-23T01:25:21.787Z,-0.39
2018-02-23T01:26:22.202Z,-0.38
2018-02-23T01:27:22.622Z,-0.35
2018-02-23T01:28:23.047Z,-0.43
2018-02-23T01:29:23.456Z,-0.41
2018-02-23T01:30:23.876Z,-0.46
2018-02-23T01:31:24.289Z,-0.46
2018-02-23T01:32:24.711Z,-0.54
2018-02-23T01:33:25.133Z,-0.52
2018-02-23T01:34:25.545Z,-0.57
2018-02-23T01:35:25.961Z,-0.50
2018-02-23T01:36:26.385Z,-0.59
2018-02-23T01:37:26.806Z,-0.64
2018-02-23T01:38:27.218Z,-0.61
2018-02-23T01:39:27.634Z,-0.57
2018-02-23T01:40:28.050Z,-0.59
2018-02-23T01:41:28.470Z,-0.65
2018-02-23T01:42:28.888Z,-0.72
2018-02-23T01:43:29.303Z,-0.71
2018-02-23T01:44:29.720Z,-0.68
2018-02-23T01:45:30.139Z,-0.59
2018-02-23T01:46:30.555Z,-0.71
2018-02-23T01:47:30.975Z,-0.74
2018-02-23T01:48:31.403Z,-0.78
2018-02-23T01:49:31.809Z,-0.91
2018-02-23T01:50:32.227Z,-0.89
2018-02-23T01:51:32.646Z,-0.72
2018-02-23T01:52:33.060Z,-0.74
2018-02-23T01:53:33.480Z,-0.71
2018-02-23T01:54:33.895Z,-0.70
2018-02-23T01:55:34.314Z,-0.71
2018-02-23T01:56:34.748Z,-0.68
2018-02-23T01:57:35.149Z,-0.78
2018-02-23T01:58:35.576Z,-0.89
2018-02-23T01:59:36.000Z,-0.80
2018-02-23T02:00:36.407Z,-0.82
2018-02-23T02:01:36.830Z,-0.89
2018-02-23T02:02:37.236Z,-0.94
2018-02-23T02:03:37.663Z,-0.94
2018-02-23T02:04:38.071Z,-0.90
2018-02-23T02:05:38.493Z,-0.91
2018-02-23T02:06:38.918Z,-0.96
2018-02-23T02:07:39.331Z,-0.96
2018-02-23T02:08:39.754Z,-0.96
2018-02-23T02:09:40.161Z,-0.86
2018-02-23T02:10:40.584Z,-0.94
2018-02-23T02:11:40.991Z,-0.91
2018-02-23T02:12:41.411Z,-0.96
2018-02-23T02:13:41.833Z,-1.09
2018-02-23T02:14:42.246Z,-1.08
2018-02-23T02:15:42.661Z,-1.07
2018-02-23T02:16:43.080Z,-1.09
2018-02-23T02:17:43.496Z,-1.07
2018-02-23T02:18:43.912Z,-1.11
2018-02-23T02:19:44.330Z,-1.11
2018-02-23T02:20:44.746Z,-1.14
2018-02-23T02:21:45.164Z,-1.15
2018-02-23T02:22:45.583Z,-1.15
2018-02-23T02:23:45.997Z,-1.14
2018-02-23T02:24:46.424Z,-1.15
2018-02-23T02:25:46.833Z,-1.14
2018-02-23T02:26:47.249Z,-1.14
2018-02-23T02:27:47.668Z,-1.11
2018-02-23T02:28:48.085Z,-1.11
2018-02-23T02:29:48.502Z,-1.20
2018-02-23T02:30:48.922Z,-1.22
2018-02-23T02:31:49.338Z,-1.20
2018-02-23T02:32:49.756Z,-1.17
2018-02-23T02:33:50.172Z,-1.12
2018-02-23T02:34:50.592Z,-1.29
2018-02-23T02:35:51.005Z,-1.30
2018-02-23T02:36:51.424Z,-1.27
2018-02-23T02:37:51.846Z,-1.25
2018-02-23T02:38:52.259Z,-1.23
2018-02-23T02:39:52.676Z,-1.19
2018-02-23T02:40:53.091Z,-1.33
2018-02-23T02:41:53.507Z,-1.37
2018-02-23T02:42:53.928Z,-1.43
2018-02-23T02:43:54.340Z,-1.46
2018-02-23T02:44:54.767Z,-1.37
2018-02-23T02:45:55.191Z,-1.33
2018-02-23T02:46:55.603Z,-1.37
2018-02-23T02:47:56.020Z,-1.30
2018-02-23T02:48:56.434Z,-1.32
2018-02-23T02:49:56.850Z,-1.33
2018-02-23T02:50:57.266Z,-1.33
2018-02-23T02:51:57.684Z,-1.46
2018-02-23T02:52:58.102Z,-1.46
2018-02-23T02:53:58.523Z,-1.33
2018-02-23T02:54:58.933Z,-1.32
2018-02-23T02:55:59.361Z,-1.37
2018-02-23T02:56:59.772Z,-1.30
2018-02-23T02:58:00.183Z,-1.30
2018-02-23T02:59:00.600Z,-1.33
2018-02-23T03:00:01.030Z,-1.35
2018-02-23T03:01:01.958Z,-1.37
2018-02-23T03:02:01.866Z,-1.50
2018-02-23T03:03:02.288Z,-1.58
2018-02-23T03:04:02.692Z,-1.53
2018-02-23T03:05:03.109Z,-1.51
2018-02-23T03:06:03.519Z,-1.56
2018-02-23T03:07:03.938Z,-1.51
2018-02-23T03:08:04.358Z,-1.53
2018-02-23T03:09:04.772Z,-1.48
2018-02-23T03:10:05.192Z,-1.51
2018-02-23T03:11:05.605Z,-1.51
2018-02-23T03:12:06.027Z,-1.51
2018-02-23T03:13:06.436Z,-1.51
2018-02-23T03:14:06.862Z,-1.53
2018-02-23T03:15:07.271Z,-1.53
2018-02-23T03:16:07.712Z,-1.65
2018-02-23T03:17:08.110Z,-1.69
2018-02-23T03:18:08.522Z,-1.72
2018-02-23T03:19:08.950Z,-1.74
2018-02-23T03:20:09.356Z,-1.74
2018-02-23T03:21:09.774Z,-1.71
2018-02-23T03:22:10.189Z,-1.59
2018-02-23T03:23:10.608Z,-1.71
2018-02-23T03:24:11.023Z,-1.71
2018-02-23T03:25:11.441Z,-1.76
2018-02-23T03:26:11.855Z,-1.68
2018-02-23T03:27:12.275Z,-1.72
2018-02-23T03:28:12.693Z,-1.74
2018-02-23T03:29:13.108Z,-1.66
2018-02-23T03:30:13.530Z,-1.76
2018-02-23T03:31:13.946Z,-1.72
2018-02-23T03:32:14.360Z,-1.76
2018-02-23T03:33:14.774Z,-1.66
2018-02-23T03:34:15.192Z,-1.77
2018-02-23T03:35:15.610Z,-1.87
2018-02-23T03:36:16.029Z,-1.95
2018-02-23T03:37:16.441Z,-1.90
2018-02-23T03:38:16.858Z,-1.80
2018-02-23T03:39:17.275Z,-1.80
2018-02-23T03:40:17.693Z,-1.80
2018-02-23T03:41:18.109Z,-1.87
2018-02-23T03:42:18.536Z,-1.79
2018-02-23T03:43:18.941Z,-1.87
2018-02-23T03:44:19.362Z,-1.77
2018-02-23T03:45:19.775Z,-1.80
2018-02-23T03:46:20.195Z,-1.87
2018-02-23T03:47:20.608Z,-1.94
2018-02-23T03:48:21.029Z,-1.89
2018-02-23T03:49:21.440Z,-1.98
2018-02-23T03:50:21.859Z,-1.95
2018-02-23T03:51:22.276Z,-1.94
2018-02-23T03:52:22.692Z,-1.94
2018-02-23T03:53:23.111Z,-1.98
2018-02-23T03:54:23.538Z,-1.94
2018-02-23T03:55:23.945Z,-1.94
2018-02-23T03:56:24.359Z,-2.01
2018-02-23T03:57:24.777Z,-2.05
2018-02-23T03:58:25.199Z,-1.95
2018-02-23T03:59:25.611Z,-2.00
2018-02-23T04:00:26.032Z,-1.98
2018-02-23T04:01:26.446Z,-2.05
2018-02-23T04:02:26.859Z,-2.07
2018-02-23T04:03:27.280Z,-2.04
2018-02-23T04:04:27.692Z,-1.87
2018-02-23T04:05:28.112Z,-1.87
2018-02-23T04:06:28.526Z,-1.84
2018-02-23T04:07:28.943Z,-1.76
2018-02-23T04:08:29.361Z,-1.76
2018-02-23T04:09:29.775Z,-1.77
2018-02-23T04:10:30.190Z,-1.72
2018-02-23T04:11:30.609Z,-1.69
2018-02-23T04:12:31.028Z,-1.69
2018-02-23T04:13:31.446Z,-1.79
2018-02-23T04:14:31.859Z,-1.80
2018-02-23T04:15:32.292Z,-1.87
2018-02-23T04:16:32.695Z,-1.89
2018-02-23T04:17:33.110Z,-1.87
2018-02-23T04:18:33.525Z,-1.90
2018-02-23T04:19:33.943Z,-1.84
2018-02-23T04:20:34.372Z,-1.74
2018-02-23T04:21:34.779Z,-1.72
2018-02-23T04:22:35.203Z,-1.79
2018-02-23T04:23:35.621Z,-1.83
2018-02-23T04:24:36.043Z,-1.90
2018-02-23T04:25:36.442Z,-1.94
2018-02-23T04:26:36.859Z,-2.00
2018-02-23T04:27:37.293Z,-2.04
2018-02-23T04:28:37.702Z,-2.12
2018-02-23T04:29:38.109Z,-2.05
2018-02-23T04:30:38.554Z,-2.08
2018-02-23T04:31:38.950Z,-2.18
2018-02-23T04:32:39.360Z,-2.10
2018-02-23T04:33:39.774Z,-2.26
2018-02-23T04:34:40.201Z,-2.28
2018-02-23T04:35:40.619Z,-2.25
2018-02-23T04:36:41.029Z,-2.19
2018-02-23T04:37:41.450Z,-2.15
2018-02-23T04:38:41.861Z,-2.38
2018-02-23T04:39:42.274Z,-2.34
2018-02-23T04:40:42.690Z,-2.18
2018-02-23T04:41:43.102Z,-2.18
2018-02-23T04:42:43.534Z,-2.12
2018-02-23T04:43:43.941Z,-2.30
2018-02-23T04:44:44.374Z,-2.25
2018-02-23T04:45:44.773Z,-2.25
2018-02-23T04:46:45.200Z,-2.23
2018-02-23T04:47:45.611Z,-2.28
2018-02-23T04:48:46.025Z,-2.37
2018-02-23T04:49:46.479Z,-2.34
2018-02-23T04:50:46.891Z,-2.41
2018-02-23T04:51:47.279Z,-2.48
2018-02-23T04:52:47.687Z,-2.50
2018-02-23T04:53:48.105Z,-2.50
2018-02-23T04:54:48.527Z,-2.56
2018-02-23T04:55:48.935Z,-2.47
2018-02-23T04:56:49.346Z,-2.63
2018-02-23T04:57:49.770Z,-2.66
2018-02-23T04:58:50.185Z,-2.62
2018-02-23T04:59:50.606Z,-2.65
2018-02-23T05:00:51.125Z,-2.65
2018-02-23T05:01:51.420Z,-2.56
2018-02-23T05:02:51.848Z,-2.71
2018-02-23T05:03:52.267Z,-2.66
2018-02-23T05:04:52.685Z,-2.62
2018-02-23T05:05:53.098Z,-2.60
2018-02-23T05:06:53.515Z,-2.65
2018-02-23T05:07:53.930Z,-2.71
2018-02-23T05:08:54.346Z,-2.70
2018-02-23T05:09:54.763Z,-2.60
2018-02-23T05:10:55.179Z,-2.70
2018-02-23T05:11:55.588Z,-2.76
2018-02-23T05:12:56.005Z,-2.76
2018-02-23T05:13:56.420Z,-2.77
2018-02-23T05:14:56.836Z,-2.94
2018-02-23T05:15:57.254Z,-2.80
2018-02-23T05:16:57.666Z,-2.77
2018-02-23T05:17:58.085Z,-2.84
2018-02-23T05:18:58.499Z,-2.78
2018-02-23T05:19:58.913Z,-2.84
2018-02-23T05:20:59.329Z,-2.73
2018-02-23T05:21:59.758Z,-2.78
2018-02-23T05:23:00.163Z,-2.77
2018-02-23T05:24:00.601Z,-2.81
2018-02-23T05:25:00.998Z,-2.88
2018-02-23T05:26:01.411Z,-2.89
2018-02-23T05:27:01.836Z,-2.88
2018-02-23T05:28:02.242Z,-3.01
2018-02-23T05:29:02.665Z,-3.10
2018-02-23T05:30:03.079Z,-2.97
2018-02-23T05:31:03.507Z,-2.97
2018-02-23T05:32:03.906Z,-2.94
2018-02-23T05:33:04.318Z,-3.10
2018-02-23T05:34:04.734Z,-3.09
2018-02-23T05:35:05.150Z,-2.99
2018-02-23T05:36:05.573Z,-3.07
2018-02-23T05:37:05.982Z,-3.07
2018-02-23T05:38:06.400Z,-3.09
2018-02-23T05:39:06.812Z,-3.12
2018-02-23T05:40:07.233Z,-3.15
2018-02-23T05:41:07.646Z,-3.04
2018-02-23T05:42:08.064Z,-3.07
2018-02-23T05:43:08.475Z,-3.02
2018-02-23T05:44:08.904Z,-2.99
2018-02-23T05:45:09.308Z,-3.10
2018-02-23T05:46:09.724Z,-3.12
2018-02-23T05:47:10.142Z,-3.01
2018-02-23T05:48:10.552Z,-2.98
2018-02-23T05:49:10.968Z,-3.02
2018-02-23T05:50:11.386Z,-2.99
2018-02-23T05:51:11.804Z,-2.94
2018-02-23T05:52:12.221Z,-3.01
2018-02-23T05:53:12.636Z,-2.88
2018-02-23T05:54:13.046Z,-3.13
2018-02-23T05:55:13.462Z,-3.12
2018-02-23T05:56:13.880Z,-3.12
2018-02-23T05:57:14.295Z,-3.09
2018-02-23T05:58:14.708Z,-3.27
2018-02-23T05:59:15.126Z,-3.30
2018-02-23T06:00:15.608Z,-3.28
2018-02-23T06:01:15.959Z,-3.23
2018-02-23T06:02:16.372Z,-3.31
2018-02-23T06:03:16.789Z,-3.25
2018-02-23T06:04:17.202Z,-3.31
2018-02-23T06:05:17.624Z,-3.23
2018-02-23T06:06:18.033Z,-3.38
2018-02-23T06:07:18.451Z,-3.38
2018-02-23T06:08:18.869Z,-3.45
2018-02-23T06:09:19.284Z,-3.46
2018-02-23T06:10:19.736Z,-3.44
2018-02-23T06:11:20.109Z,-3.41
2018-02-23T06:12:20.537Z,-3.44
2018-02-23T06:13:20.952Z,-3.41
2018-02-23T06:14:21.360Z,-3.38
2018-02-23T06:15:21.776Z,-3.38
2018-02-23T06:16:22.202Z,-3.28
2018-02-23T06:17:22.620Z,-3.33
2018-02-23T06:18:23.026Z,-3.30
2018-02-23T06:19:23.433Z,-3.33
2018-02-23T06:20:23.846Z,-3.30
2018-02-23T06:21:24.267Z,-3.41
2018-02-23T06:22:24.676Z,-3.37
2018-02-23T06:23:25.092Z,-3.46
2018-02-23T06:24:25.514Z,-3.48
2018-02-23T06:25:25.924Z,-3.45
2018-02-23T06:26:26.339Z,-3.49
2018-02-23T06:27:26.754Z,-3.48
2018-02-23T06:28:27.170Z,-3.48
2018-02-23T06:29:27.584Z,-3.33
2018-02-23T06:30:28.009Z,-3.37
2018-02-23T06:31:28.447Z,-3.38
2018-02-23T06:32:28.830Z,-3.46
2018-02-23T06:33:29.247Z,-3.41
2018-02-23T06:34:29.663Z,-3.52
2018-02-23T06:35:30.081Z,-3.48
2018-02-23T06:36:30.498Z,-3.44
2018-02-23T06:37:30.912Z,-3.37
2018-02-23T06:38:31.332Z,-3.61
2018-02-23T06:39:31.736Z,-3.56
2018-02-23T06:40:32.160Z,-3.63
2018-02-23T06:41:32.575Z,-3.51
2018-02-23T06:42:33.034Z,-3.59
2018-02-23T06:43:33.399Z,-3.59
2018-02-23T06:44:33.826Z,-3.64
2018-02-23T06:45:34.228Z,-3.70
2018-02-23T06:46:34.646Z,-3.55
2018-02-23T06:47:35.056Z,-3.61
2018-02-23T06:48:35.506Z,-3.55
2018-02-23T06:49:35.947Z,-3.66
2018-02-23T06:50:36.302Z,-3.61
2018-02-23T06:51:36.723Z,-3.59
2018-02-23T06:52:37.135Z,-3.66
2018-02-23T06:53:37.548Z,-3.56
2018-02-23T06:54:37.969Z,-3.58
2018-02-23T06:55:38.381Z,-3.59
2018-02-23T06:56:38.796Z,-3.64
2018-02-23T06:57:39.221Z,-3.55
2018-02-23T06:58:39.625Z,-3.56
2018-02-23T06:59:40.047Z,-3.55
2018-02-23T07:00:40.455Z,-3.67
2018-02-23T07:01:40.873Z,-3.64
2018-02-23T07:02:41.284Z,-3.54
2018-02-23T07:03:41.700Z,-3.59
2018-02-23T07:04:42.152Z,-3.46
2018-02-23T07:05:42.528Z,-3.48
2018-02-23T07:06:42.945Z,-3.37
2018-02-23T07:07:43.365Z,-3.41
2018-02-23T07:08:43.777Z,-3.48
2018-02-23T07:09:44.194Z,-3.37
2018-02-23T07:10:44.627Z,-3.41
2018-02-23T07:11:45.023Z,-3.33
2018-02-23T07:12:45.441Z,-3.27
2018-02-23T07:13:45.856Z,-3.38
2018-02-23T07:14:46.272Z,-3.27
2018-02-23T07:15:46.689Z,-3.30
2018-02-23T07:16:47.102Z,-3.30
2018-02-23T07:17:47.522Z,-3.31
2018-02-23T07:18:47.929Z,-3.34
2018-02-23T07:19:48.346Z,-3.35
2018-02-23T07:20:48.761Z,-3.37
2018-02-23T07:21:49.177Z,-3.35
2018-02-23T07:22:49.592Z,-3.30
2018-02-23T07:23:50.010Z,-3.16
2018-02-23T07:24:50.428Z,-3.31
2018-02-23T07:25:50.841Z,-3.30
2018-02-23T07:26:51.254Z,-3.33
2018-02-23T07:27:51.698Z,-3.27
2018-02-23T07:28:52.113Z,-3.17
2018-02-23T07:29:52.502Z,-3.38
2018-02-23T07:30:52.916Z,-3.20
2018-02-23T07:31:53.365Z,-3.15
2018-02-23T07:32:53.748Z,-3.23
2018-02-23T07:33:54.162Z,-3.28
2018-02-23T07:34:54.579Z,-3.59
2018-02-23T07:35:54.993Z,-3.45
2018-02-23T07:36:55.413Z,-3.37
2018-02-23T07:37:55.825Z,-3.33
2018-02-23T07:38:56.240Z,-3.35
2018-02-23T07:39:56.658Z,-3.40
2018-02-23T07:40:57.076Z,-3.35
2018-02-23T07:41:57.487Z,-3.33
2018-02-23T07:42:57.906Z,-3.40
2018-02-23T07:43:58.323Z,-3.34
2018-02-23T07:44:58.738Z,-3.44
2018-02-23T07:45:59.149Z,-3.28
2018-02-23T07:46:59.563Z,-3.41
2018-02-23T07:47:59.985Z,-3.33
2018-02-23T07:49:00.395Z,-3.12
2018-02-23T07:50:00.811Z,-3.02
2018-02-23T07:51:01.227Z,-2.92
2018-02-23T07:52:01.657Z,-3.01
2018-02-23T07:53:02.060Z,-2.97
2018-02-23T07:54:02.476Z,-2.94
2018-02-23T07:55:02.893Z,-2.89
2018-02-23T07:56:03.308Z,-2.77
2018-02-23T07:57:03.724Z,-2.94
2018-02-23T07:58:04.140Z,-2.98
2018-02-23T07:59:04.554Z,-2.91
2018-02-23T08:00:04.970Z,-2.77
2018-02-23T08:01:05.386Z,-2.74
2018-02-23T08:02:05.830Z,-2.76
2018-02-23T08:03:06.233Z,-2.74
2018-02-23T08:04:06.634Z,-2.70
2018-02-23T08:05:07.053Z,-2.60
2018-02-23T08:06:07.466Z,-2.60
2018-02-23T08:07:07.881Z,-2.50
2018-02-23T08:08:08.308Z,-2.48
2018-02-23T08:09:08.717Z,-2.45
2018-02-23T08:10:09.131Z,-2.52
2018-02-23T08:11:09.548Z,-2.40
2018-02-23T08:12:09.964Z,-2.40
2018-02-23T08:13:10.381Z,-2.55
2018-02-23T08:14:10.795Z,-2.23
2018-02-23T08:15:11.211Z,-2.23
2018-02-23T08:16:11.628Z,-2.25
2018-02-23T08:17:12.047Z,-2.16
2018-02-23T08:18:12.461Z,-2.07
2018-02-23T08:19:12.876Z,-2.26
2018-02-23T08:20:13.296Z,-2.34
2018-02-23T08:21:13.795Z,-2.56
2018-02-23T08:22:14.121Z,-2.26
2018-02-23T08:23:14.545Z,-2.12
2018-02-23T08:24:14.973Z,-1.97
2018-02-23T08:25:15.380Z,-1.92
2018-02-23T08:26:15.794Z,-1.79
2018-02-23T08:27:16.211Z,-2.02
2018-02-23T08:28:16.631Z,-1.90
2018-02-23T08:29:17.045Z,-1.92
2018-02-23T08:30:17.466Z,-1.76
2018-02-23T08:31:17.887Z,-1.90
2018-02-23T08:32:18.330Z,-1.98
2018-02-23T08:33:18.715Z,-1.89
2018-02-23T08:34:19.131Z,-1.82
2018-02-23T08:35:19.548Z,-1.71
2018-02-23T08:36:19.967Z,-1.59
2018-02-23T08:37:20.384Z,-1.51
2018-02-23T08:38:20.799Z,-1.35
2018-02-23T08:39:21.217Z,-1.53
2018-02-23T08:40:21.645Z,-1.54
2018-02-23T08:41:22.060Z,-1.59
2018-02-23T08:42:22.470Z,-1.40
2018-02-23T08:43:22.900Z,-1.48
2018-02-23T08:44:23.319Z,-1.48
2018-02-23T08:45:23.735Z,-1.40
2018-02-23T08:46:24.160Z,-1.38
2018-02-23T08:47:24.561Z,-1.58
2018-02-23T08:48:24.982Z,-1.64
2018-02-23T08:49:25.429Z,-1.26
2018-02-23T08:50:25.811Z,-0.94
2018-02-23T08:51:26.232Z,-0.78
2018-02-23T08:52:26.651Z,-0.64
2018-02-23T08:53:27.066Z,-0.62
2018-02-23T08:54:27.479Z,-0.41
2018-02-23T08:55:27.899Z,-0.41
2018-02-23T08:56:28.318Z,0.25
2018-02-23T08:57:28.737Z,0.80
2018-02-23T08:58:29.177Z,0.96
2018-02-23T08:59:29.576Z,0.80
2018-02-23T09:00:29.994Z,0.56
2018-02-23T09:01:30.413Z,0.78
2018-02-23T09:02:30.839Z,0.74
2018-02-23T09:03:31.253Z,1.02
2018-02-23T09:04:31.692Z,1.10
2018-02-23T09:05:32.094Z,1.74
2018-02-23T09:06:32.517Z,2.29
2018-02-23T09:07:32.935Z,2.65
2018-02-23T09:08:33.361Z,3.10
2018-02-23T09:09:33.788Z,3.28
2018-02-23T09:10:34.203Z,3.14
2018-02-23T09:11:34.626Z,2.69
2018-02-23T09:12:35.099Z,2.89
2018-02-23T09:13:35.472Z,3.60
2018-02-23T09:14:35.892Z,4.14
2018-02-23T09:15:36.325Z,4.32
2018-02-23T09:16:36.745Z,4.70
2018-02-23T09:17:37.168Z,4.53
2018-02-23T09:18:37.589Z,4.52
2018-02-23T09:19:38.015Z,4.82
2018-02-23T09:20:38.448Z,4.31
2018-02-23T09:21:38.869Z,4.34
2018-02-23T09:22:39.291Z,3.50
2018-02-23T09:23:39.715Z,2.60
2018-02-23T09:24:40.173Z,3.28
2018-02-23T09:25:40.573Z,3.25
2018-02-23T09:26:40.993Z,3.11
2018-02-23T09:27:41.426Z,3.21
2018-02-23T09:28:41.845Z,2.71
2018-02-23T09:29:42.272Z,2.90
2018-02-23T09:30:42.697Z,2.74
2018-02-23T09:31:43.126Z,2.43
2018-02-23T09:32:43.556Z,2.38
2018-02-23T09:33:43.988Z,2.85
2018-02-23T09:34:44.406Z,2.98
2018-02-23T09:35:44.827Z,3.18
2018-02-23T09:36:45.254Z,3.07
2018-02-23T09:37:45.684Z,3.05
2018-02-23T09:38:46.116Z,3.32
2018-02-23T09:39:46.537Z,3.13
2018-02-23T09:40:46.957Z,3.40
2018-02-23T09:41:47.391Z,3.60
2018-02-23T09:42:47.812Z,2.79
2018-02-23T09:43:48.239Z,1.68
2018-02-23T09:44:48.662Z,1.55
2018-02-23T09:45:49.094Z,2.35
2018-02-23T09:46:49.516Z,3.51
2018-02-23T09:47:49.950Z,4.17
2018-02-23T09:48:50.426Z,3.98
2018-02-23T09:49:50.800Z,4.73
2018-02-23T09:50:51.224Z,5.08
2018-02-23T09:51:51.658Z,5.04
2018-02-23T09:52:52.079Z,5.20
2018-02-23T09:53:52.509Z,4.56
2018-02-23T09:54:52.933Z,5.25
2018-02-23T09:55:53.365Z,4.49
2018-02-23T09:56:53.817Z,4.34
2018-02-23T09:57:54.227Z,4.75
2018-02-23T09:58:54.653Z,4.55
2018-02-23T09:59:55.096Z,5.57
2018-02-23T10:00:55.512Z,5.56
2018-02-23T10:01:55.943Z,6.33
2018-02-23T10:02:56.377Z,5.89
2018-02-23T10:03:56.908Z,6.41
2018-02-23T10:04:57.236Z,5.07
2018-02-23T10:05:57.667Z,5.94
2018-02-23T10:06:58.102Z,4.78
2018-02-23T10:07:58.522Z,3.13
2018-02-23T10:08:58.963Z,4.50
2018-02-23T10:09:59.388Z,5.86
2018-02-23T10:10:59.815Z,6.62
2018-02-23T10:12:00.249Z,6.04
2018-02-23T10:13:00.694Z,3.94
2018-02-23T10:14:01.120Z,5.02
2018-02-23T10:15:01.553Z,5.57
2018-02-23T10:16:01.980Z,4.06
2018-02-23T10:17:02.416Z,3.28
2018-02-23T10:18:02.846Z,3.50
2018-02-23T10:19:03.273Z,4.12
2018-02-23T10:20:03.708Z,4.01
2018-02-23T10:21:04.144Z,4.70
2018-02-23T10:22:04.573Z,5.89
2018-02-23T10:23:05.004Z,6.14
2018-02-23T10:24:05.447Z,6.49
2018-02-23T10:28:12.127Z,6.08
2018-02-23T10:29:12.558Z,6.93
2018-02-23T10:31:07.176Z,6.56
2018-02-23T10:32:07.609Z,5.30
2018-02-23T10:34:02.241Z,3.25
2018-02-23T10:35:02.661Z,4.77
2018-02-23T10:36:58.254Z,5.64
2018-02-23T10:37:58.680Z,6.42
2018-02-23T10:38:59.145Z,6.07
2018-02-23T10:39:59.547Z,6.36
2018-02-23T10:40:59.983Z,6.39
2018-02-23T10:42:00.412Z,7.67
2018-02-23T10:43:00.858Z,4.86
2018-02-23T10:44:01.291Z,5.72
2018-02-23T10:45:01.752Z,6.26
2018-02-23T10:46:02.164Z,4.48
2018-02-23T10:47:02.625Z,5.80
2018-02-23T10:48:03.027Z,7.00
2018-02-23T10:49:03.460Z,7.85
2018-02-23T10:50:03.903Z,8.15
2018-02-23T10:51:04.342Z,7.20
2018-02-23T10:52:04.775Z,7.66
2018-02-23T10:53:05.202Z,8.16
2018-02-23T10:54:05.639Z,8.41
2018-02-23T10:55:06.090Z,6.19
2018-02-23T10:56:06.535Z,4.37
2018-02-23T10:57:06.968Z,3.95
2018-02-23T10:58:07.393Z,4.70
2018-02-23T10:59:07.828Z,5.62
2018-02-23T11:00:08.269Z,6.97
2018-02-23T11:01:08.717Z,8.01
2018-02-23T11:02:09.131Z,6.26
2018-02-23T11:03:09.559Z,6.77
2018-02-23T11:04:10.037Z,5.25
2018-02-23T11:05:10.465Z,3.10
2018-02-23T11:06:10.903Z,5.11
2018-02-23T11:07:11.352Z,5.43
2018-02-23T11:08:11.748Z,5.97
2018-02-23T11:09:12.185Z,5.87
2018-02-23T11:10:12.641Z,6.41
2018-02-23T11:11:13.051Z,7.02
2018-02-23T11:12:13.479Z,7.58
2018-02-23T11:13:13.926Z,8.69
2018-02-23T11:14:14.360Z,9.25
2018-02-23T11:15:14.802Z,9.28
2018-02-23T11:16:15.226Z,9.48
2018-02-23T11:17:15.689Z,8.03
2018-02-23T11:18:16.117Z,6.99
2018-02-23T11:19:16.553Z,7.75
2018-02-23T11:20:16.990Z,7.82
2018-02-23T11:21:17.445Z,8.63
2018-02-23T11:22:17.866Z,8.09
2018-02-23T11:23:18.288Z,7.03
2018-02-23T11:24:18.753Z,7.33
2018-02-23T11:25:19.195Z,6.45
2018-02-23T11:26:19.626Z,5.56
2018-02-23T11:27:20.064Z,5.68
2018-02-23T11:28:20.509Z,6.01
2018-02-23T11:29:20.939Z,6.92
2018-02-23T11:30:21.366Z,6.44
2018-02-23T11:31:21.812Z,5.15
2018-02-23T11:32:22.220Z,6.07
2018-02-23T11:33:22.674Z,5.87
2018-02-23T11:34:23.100Z,5.71
2018-02-23T11:35:23.517Z,5.26
2018-02-23T11:36:23.964Z,4.53
2018-02-23T11:37:24.402Z,5.21
2018-02-23T11:38:24.847Z,4.62
2018-02-23T11:39:25.274Z,6.17
2018-02-23T11:40:25.712Z,3.53
2018-02-23T11:41:26.148Z,3.40
2018-02-23T11:42:26.580Z,4.41
2018-02-23T11:43:27.031Z,5.28
2018-02-23T11:44:27.446Z,6.26
2018-02-23T11:45:27.891Z,6.44
2018-02-23T11:46:28.314Z,5.62
2018-02-23T11:47:28.755Z,4.92
2018-02-23T11:48:29.185Z,2.79
2018-02-23T11:49:29.628Z,3.56
2018-02-23T11:50:30.109Z,4.06
2018-02-23T11:51:30.508Z,2.85
2018-02-23T11:52:30.945Z,3.42
2018-02-23T11:53:31.370Z,2.26
2018-02-23T11:54:31.835Z,2.87
2018-02-23T11:55:32.228Z,2.47
2018-02-23T11:56:32.677Z,2.53
2018-02-23T11:57:33.103Z,2.57
2018-02-23T11:58:33.529Z,2.29
2018-02-23T11:59:33.950Z,2.26
2018-02-23T12:00:34.402Z,1.80
2018-02-23T12:01:34.812Z,2.29
2018-02-23T12:02:35.252Z,1.88
2018-02-23T12:03:35.683Z,2.25
2018-02-23T12:04:36.118Z,2.46
2018-02-23T12:05:36.525Z,2.71
2018-02-23T12:06:36.950Z,2.69
2018-02-23T12:07:37.380Z,2.71
2018-02-23T12:08:37.804Z,2.14
2018-02-23T12:09:38.235Z,2.22
2018-02-23T12:10:38.684Z,2.28
2018-02-23T12:11:39.072Z,2.33
2018-02-23T12:12:39.504Z,2.20
2018-02-23T12:13:39.946Z,2.25
2018-02-23T12:14:40.342Z,2.26
2018-02-23T12:15:40.780Z,2.00
2018-02-23T12:16:41.206Z,1.73
2018-02-23T12:17:41.616Z,1.91
2018-02-23T12:18:42.045Z,1.45
2018-02-23T12:19:42.476Z,1.40
2018-02-23T12:20:42.888Z,1.38
2018-02-23T12:21:43.328Z,1.40
2018-02-23T12:22:43.727Z,1.16
2018-02-23T12:23:44.156Z,1.17
2018-02-23T12:24:44.576Z,1.40
2018-02-23T12:25:44.997Z,1.28
2018-02-23T12:26:45.420Z,1.44
2018-02-23T12:27:45.847Z,1.56
2018-02-23T12:28:46.262Z,1.60
2018-02-23T12:29:46.682Z,1.58
2018-02-23T12:30:47.147Z,1.60
2018-02-23T12:31:47.523Z,1.77
2018-02-23T12:32:47.953Z,1.77
2018-02-23T12:33:48.365Z,1.81
2018-02-23T12:34:48.785Z,1.45
2018-02-23T12:35:49.226Z,1.41
2018-02-23T12:36:49.635Z,0.88
2018-02-23T12:37:50.051Z,0.65
2018-02-23T12:38:50.477Z,1.02
2018-02-23T12:39:50.909Z,1.06
2018-02-23T12:40:51.315Z,1.30
2018-02-23T12:41:51.750Z,1.49
2018-02-23T12:42:52.173Z,1.34
2018-02-23T12:43:52.576Z,1.44
2018-02-23T12:44:53.016Z,1.19
2018-02-23T12:45:53.417Z,1.31
2018-02-23T12:46:53.859Z,1.34
2018-02-23T12:47:54.261Z,1.38
2018-02-23T12:48:54.683Z,1.49
2018-02-23T12:49:55.104Z,1.49
2018-02-23T12:50:55.522Z,1.31
2018-02-23T12:51:55.945Z,0.92
2018-02-23T12:52:56.360Z,1.05
2018-02-23T12:53:56.784Z,0.74
2018-02-23T12:54:57.214Z,0.96
2018-02-23T12:55:57.628Z,0.77
2018-02-23T12:56:58.044Z,0.66
2018-02-23T12:57:58.463Z,0.98
2018-02-23T12:58:58.892Z,1.01
2018-02-23T12:59:59.308Z,0.95
2018-02-23T13:00:59.731Z,0.87
2018-02-23T13:02:00.145Z,0.77
2018-02-23T13:03:00.564Z,0.84
2018-02-23T13:04:00.990Z,0.92
2018-02-23T13:05:01.407Z,0.88
2018-02-23T13:06:01.829Z,0.77
2018-02-23T13:07:02.244Z,0.87
2018-02-23T13:08:02.665Z,0.95
2018-02-23T13:09:03.094Z,1.05
2018-02-23T13:10:03.524Z,0.81
2018-02-23T13:11:03.939Z,1.10
2018-02-23T13:12:04.347Z,1.14
2018-02-23T13:13:04.766Z,1.32
2018-02-23T13:14:05.207Z,1.24